MMTP

Tapachula International Airport

Airport
ICAO code
MMTP
IATA Code
TAP
Summary
ICAO Region
CARSAM
ICAO Territory
Location

Tapachula, Chiapas

Serving
Tapachula
Elevation
97 ft
Coordinates
14° 47' 40" N , 92° 22' 12" W
KCC
Metar
MMTP 181143Z 00000KT 4SM FEW030 BKN080 26/24 A2985 RMK SLP131 52004 914 8/470 BR OCNL DROPS

Tapachula International Airport is an international airport located at Tapachula, Chiapas, Mexico, and is Mexico's southernmost airport.

Climatology

Tropical Savannah Climate (Köppen climate classification Aw)

Runways

Designator Length Width Surface Rops
5/23 2000 45 ASP No/No

Airport map

Aerial View

SKYbrary Partners:

Safety knowledge contributed by: